Time;durP1;ratioP1;P1;durP2;ratioP2;P2;SDS_P1;SDS_P2;PMS_P1;PMS_P2;Temp;Humidity;BMP_temperature;BMP_pressure;BME280_temperature;BME280_humidity;BME280_pressure;Samples;Min_cycle;Max_cycle;Signal;HPM_P1;HPM_P2
2023/08/03 00:01:24;;;;;;;8.43;2.75;;;16.40;99.90;;;;;;5093867;28;20048;-62
2023/08/03 00:03:50;;;;;;;7.85;2.53;;;16.30;99.90;;;;;;5091168;28;20043;-62
2023/08/03 00:06:16;;;;;;;7.30;2.63;;;16.30;99.90;;;;;;5126776;27;20392;-62
2023/08/03 00:08:41;;;;;;;5.57;2.53;;;16.30;99.90;;;;;;5125885;27;20040;-62
2023/08/03 00:11:07;;;;;;;7.50;2.20;;;16.30;99.90;;;;;;5091835;28;20135;-62
2023/08/03 00:13:33;;;;;;;10.27;2.83;;;16.30;99.90;;;;;;5093429;28;20036;-62
2023/08/03 00:15:58;;;;;;;7.53;2.97;;;16.30;99.90;;;;;;5125566;27;20044;-62
2023/08/03 00:18:25;;;;;;;6.40;2.40;;;16.30;99.90;;;;;;5092905;28;20126;-62
2023/08/03 00:20:50;;;;;;;7.45;2.58;;;16.40;99.90;;;;;;5093172;28;20047;-62
2023/08/03 00:23:16;;;;;;;8.10;2.20;;;16.40;99.90;;;;;;5093379;28;20047;-62
2023/08/03 00:25:42;;;;;;;8.00;2.50;;;16.30;99.90;;;;;;5092440;28;20378;-62
2023/08/03 00:28:07;;;;;;;5.07;2.00;;;16.30;99.90;;;;;;5093335;28;20059;-62
2023/08/03 00:30:33;;;;;;;5.70;2.05;;;16.30;99.90;;;;;;5092502;28;20054;-62
2023/08/03 00:32:59;;;;;;;5.53;2.28;;;16.30;99.90;;;;;;5125341;27;20388;-62
2023/08/03 00:35:25;;;;;;;7.80;2.35;;;16.30;99.90;;;;;;5093608;28;20036;-62
2023/08/03 00:37:53;;;;;;;6.40;2.50;;;16.40;99.90;;;;;;5091256;28;20396;-62
2023/08/03 00:40:19;;;;;;;6.20;2.63;;;16.40;99.90;;;;;;5092872;28;20051;-62
2023/08/03 00:42:45;;;;;;;10.60;2.80;;;16.40;99.90;;;;;;5091583;28;20047;-63
2023/08/03 00:45:14;;;;;;;8.07;2.78;;;16.40;99.90;;;;;;5092940;28;20399;-62
2023/08/03 00:47:40;;;;;;;6.53;1.83;;;16.40;99.90;;;;;;5092051;28;20105;-62
2023/08/03 00:50:06;;;;;;;5.97;2.00;;;16.40;99.90;;;;;;5093119;28;20032;-62
2023/08/03 00:52:34;;;;;;;6.75;2.20;;;16.40;99.90;;;;;;5092479;28;20088;-62
2023/08/03 00:55:01;;;;;;;7.55;2.42;;;16.40;99.90;;;;;;5091568;28;20051;-62
2023/08/03 00:57:28;;;;;;;7.45;2.25;;;16.40;99.90;;;;;;5091479;28;20047;-62
2023/08/03 00:59:55;;;;;;;5.43;2.17;;;16.40;99.90;;;;;;5090522;28;20098;-62
2023/08/03 01:02:21;;;;;;;8.18;2.75;;;16.40;99.90;;;;;;5091493;28;20044;-62
2023/08/03 01:04:48;;;;;;;8.32;2.58;;;16.40;99.90;;;;;;5092032;28;20413;-62
2023/08/03 01:07:13;;;;;;;6.22;2.72;;;16.40;99.90;;;;;;5092014;28;20122;-62
2023/08/03 01:09:39;;;;;;;5.82;2.65;;;16.40;99.90;;;;;;5090824;28;20159;-62
2023/08/03 01:12:05;;;;;;;7.72;1.95;;;16.40;99.90;;;;;;5092396;28;20433;-62
2023/08/03 01:14:31;;;;;;;7.53;2.40;;;16.30;99.90;;;;;;5091701;28;20028;-62
2023/08/03 01:16:57;;;;;;;4.43;1.90;;;16.30;99.90;;;;;;5092460;28;20443;-62
2023/08/03 01:19:23;;;;;;;7.32;2.60;;;16.30;99.90;;;;;;5092550;28;20131;-62
2023/08/03 01:21:50;;;;;;;6.55;2.47;;;16.40;99.90;;;;;;5090118;28;20044;-62
2023/08/03 01:24:16;;;;;;;6.47;2.53;;;16.40;99.90;;;;;;5091392;28;20039;-62
2023/08/03 01:26:44;;;;;;;5.78;2.50;;;16.40;99.90;;;;;;5124653;27;20122;-62
2023/08/03 01:29:10;;;;;;;4.65;2.40;;;16.40;99.90;;;;;;5090408;28;20036;-62
2023/08/03 01:31:36;;;;;;;7.15;2.80;;;16.40;99.90;;;;;;5090785;28;20028;-62
2023/08/03 01:34:02;;;;;;;6.03;2.42;;;16.40;99.90;;;;;;5091826;28;20036;-62
2023/08/03 01:36:28;;;;;;;6.60;2.47;;;16.40;99.90;;;;;;5089674;28;20473;-62
2023/08/03 01:38:55;;;;;;;6.80;2.55;;;16.40;99.90;;;;;;5092061;28;20105;-62
2023/08/03 01:41:23;;;;;;;6.50;1.95;;;16.40;99.90;;;;;;5090689;28;20052;-61
2023/08/03 01:44:20;;;;;;;9.00;2.05;;;16.40;99.90;;;;;;5089709;28;20560;-61
2023/08/03 01:46:45;;;;;;;7.45;2.35;;;16.40;99.90;;;;;;5091267;28;20511;-60
2023/08/03 01:49:11;;;;;;;6.68;2.42;;;16.40;99.90;;;;;;5090667;28;20044;-61
2023/08/03 01:51:39;;;;;;;7.28;2.50;;;16.40;99.90;;;;;;5090186;28;20496;-61
2023/08/03 01:54:05;;;;;;;7.57;2.83;;;16.40;99.90;;;;;;5090592;28;20519;-61
2023/08/03 01:56:30;;;;;;;6.90;2.65;;;16.40;99.90;;;;;;5091179;28;20028;-61
2023/08/03 01:58:57;;;;;;;8.10;2.78;;;16.40;99.90;;;;;;5090520;28;20117;-61
2023/08/03 02:01:22;;;;;;;6.10;2.70;;;16.40;99.90;;;;;;5091565;28;20047;-61
2023/08/03 02:03:48;;;;;;;4.55;2.10;;;16.30;99.90;;;;;;5090826;28;20115;-61
2023/08/03 02:06:14;;;;;;;6.80;2.50;;;16.30;99.90;;;;;;5124359;27;20047;-61
2023/08/03 02:08:39;;;;;;;7.70;2.17;;;16.40;99.90;;;;;;5128154;27;20047;-61
2023/08/03 02:11:05;;;;;;;6.53;2.30;;;16.40;99.90;;;;;;5111247;28;20044;-61
2023/08/03 02:13:30;;;;;;;6.45;2.33;;;16.30;99.90;;;;;;5095412;28;20543;-61
2023/08/03 02:15:56;;;;;;;5.05;2.20;;;16.40;99.90;;;;;;5095441;28;20550;-61
2023/08/03 02:18:22;;;;;;;5.78;2.55;;;16.30;99.90;;;;;;5093690;28;20400;-61
2023/08/03 02:20:48;;;;;;;12.20;2.45;;;16.40;99.90;;;;;;5094166;28;20047;-61
2023/08/03 02:23:13;;;;;;;6.28;2.67;;;16.30;99.90;;;;;;5128711;27;20135;-61
2023/08/03 02:25:39;;;;;;;5.40;2.40;;;16.40;99.90;;;;;;5093933;28;20527;-61
2023/08/03 02:28:04;;;;;;;5.47;2.60;;;16.30;99.90;;;;;;5094648;28;20044;-61
2023/08/03 02:30:31;;;;;;;4.88;2.10;;;16.30;99.90;;;;;;5095035;28;20553;-61
2023/08/03 02:32:56;;;;;;;7.05;2.03;;;16.30;99.90;;;;;;5076474;28;20032;-61
2023/08/03 02:35:22;;;;;;;4.07;2.05;;;16.40;99.90;;;;;;5128380;27;20055;-61
2023/08/03 02:37:47;;;;;;;6.85;2.40;;;16.30;99.90;;;;;;5127284;27;20096;-61
2023/08/03 02:40:13;;;;;;;5.90;2.05;;;16.40;99.90;;;;;;5094558;28;20051;-61
2023/08/03 02:42:39;;;;;;;6.07;2.58;;;16.40;99.90;;;;;;5095291;28;20040;-62
2023/08/03 02:45:05;;;;;;;7.25;3.00;;;16.30;99.90;;;;;;5094374;28;20059;-61
2023/08/03 02:47:31;;;;;;;3.95;2.05;;;16.30;99.90;;;;;;5093224;28;20043;-60
2023/08/03 02:49:56;;;;;;;6.22;2.85;;;16.40;99.90;;;;;;5094338;28;20044;-59
2023/08/03 02:52:22;;;;;;;4.88;2.22;;;16.40;99.90;;;;;;5094475;28;20059;-59
2023/08/03 02:54:48;;;;;;;5.57;2.03;;;16.30;99.90;;;;;;5127499;27;20110;-59
2023/08/03 02:57:13;;;;;;;7.75;2.78;;;16.30;99.90;;;;;;5110280;28;20074;-59
2023/08/03 02:59:39;;;;;;;4.50;2.30;;;16.30;99.90;;;;;;5093849;28;20484;-60
2023/08/03 03:02:05;;;;;;;4.72;2.05;;;16.40;99.90;;;;;;5093866;28;20062;-60
2023/08/03 03:04:31;;;;;;;2.80;1.50;;;16.30;99.90;;;;;;5093140;28;20089;-60
2023/08/03 03:06:56;;;;;;;5.85;2.65;;;16.40;99.90;;;;;;5094030;28;20032;-60
2023/08/03 03:09:22;;;;;;;3.97;2.00;;;16.40;99.90;;;;;;5092390;28;20131;-60
2023/08/03 03:11:48;;;;;;;5.65;1.83;;;16.30;99.90;;;;;;5108300;28;20043;-60
2023/08/03 03:14:14;;;;;;;3.60;1.67;;;16.40;99.90;;;;;;5093115;28;20469;-60
2023/08/03 03:16:39;;;;;;;4.35;1.90;;;16.30;99.90;;;;;;5093819;28;20111;-62
2023/08/03 03:19:05;;;;;;;4.03;1.88;;;16.30;99.90;;;;;;5093132;28;20527;-61
2023/08/03 03:21:31;;;;;;;5.65;2.10;;;16.40;99.90;;;;;;5092806;28;20538;-61
2023/08/03 03:23:56;;;;;;;5.45;2.30;;;16.30;99.90;;;;;;5092976;28;20040;-60
2023/08/03 03:26:22;;;;;;;5.90;2.72;;;16.40;99.90;;;;;;5094316;28;20047;-61
2023/08/03 03:28:48;;;;;;;6.07;2.20;;;16.40;99.90;;;;;;5092073;28;20048;-61
2023/08/03 03:31:13;;;;;;;4.30;1.92;;;16.40;99.90;;;;;;5076147;28;20040;-61
2023/08/03 03:33:39;;;;;;;4.53;2.50;;;16.40;99.90;;;;;;5094058;28;20035;-61
2023/08/03 03:36:05;;;;;;;4.57;2.15;;;16.30;99.90;;;;;;5093808;28;20036;-61
2023/08/03 03:38:30;;;;;;;7.15;3.17;;;16.30;99.90;;;;;;5092721;28;20043;-61
2023/08/03 03:40:56;;;;;;;4.97;2.30;;;16.20;99.90;;;;;;5093724;28;20141;-61
2023/08/03 03:43:21;;;;;;;4.03;2.08;;;16.20;99.90;;;;;;5113174;27;20401;-61
2023/08/03 03:45:47;;;;;;;6.03;2.30;;;16.20;99.90;;;;;;5093862;28;20412;-61
2023/08/03 03:48:13;;;;;;;6.97;2.78;;;16.20;99.90;;;;;;5094234;28;20165;-61
2023/08/03 03:50:38;;;;;;;6.32;2.70;;;16.20;99.90;;;;;;5091554;28;20036;-62
2023/08/03 03:53:04;;;;;;;6.97;2.00;;;16.20;99.90;;;;;;5093581;28;20048;-62
2023/08/03 03:55:30;;;;;;;7.10;3.00;;;16.20;99.90;;;;;;5093648;28;20036;-61
2023/08/03 03:57:58;;;;;;;6.25;3.22;;;16.10;99.90;;;;;;5092799;28;20119;-61
2023/08/03 04:00:24;;;;;;;6.38;3.70;;;16.10;99.90;;;;;;5093992;28;20835;-61
2023/08/03 04:02:50;;;;;;;7.57;3.17;;;16.20;99.90;;;;;;5092349;28;20044;-61
2023/08/03 04:05:15;;;;;;;8.15;4.30;;;16.10;99.90;;;;;;5092505;28;20101;-61
2023/08/03 04:07:41;;;;;;;6.75;3.47;;;16.10;99.90;;;;;;5092817;28;20040;-61
2023/08/03 04:10:07;;;;;;;9.90;3.90;;;16.20;99.90;;;;;;5092123;28;20036;-61
2023/08/03 04:12:33;;;;;;;7.20;3.85;;;16.10;99.90;;;;;;5093643;28;20044;-61
2023/08/03 04:14:58;;;;;;;6.07;3.47;;;16.10;99.90;;;;;;5091725;28;20044;-61
2023/08/03 04:17:24;;;;;;;6.10;3.30;;;16.10;99.90;;;;;;5124125;27;20421;-61
2023/08/03 04:19:50;;;;;;;6.75;4.25;;;16.20;99.90;;;;;;5125918;27;20157;-61
2023/08/03 04:22:15;;;;;;;8.57;4.28;;;16.20;99.90;;;;;;5093530;28;20036;-61
2023/08/03 04:24:41;;;;;;;8.40;4.30;;;16.10;99.90;;;;;;5091196;28;20043;-61
2023/08/03 04:27:07;;;;;;;8.10;3.95;;;16.10;99.90;;;;;;5126112;27;20443;-61
2023/08/03 04:29:32;;;;;;;8.20;4.45;;;16.10;99.90;;;;;;5124547;27;20047;-61
2023/08/03 04:31:58;;;;;;;7.32;4.32;;;16.10;99.90;;;;;;5091749;28;20036;-61
2023/08/03 04:34:24;;;;;;;6.78;4.00;;;16.10;99.90;;;;;;5093355;28;20039;-61
2023/08/03 04:36:50;;;;;;;7.45;4.03;;;16.00;99.90;;;;;;5092359;28;20136;-61
2023/08/03 04:39:15;;;;;;;6.60;4.10;;;16.10;99.90;;;;;;5091071;28;20040;-61
2023/08/03 04:41:41;;;;;;;7.88;4.32;;;16.00;99.90;;;;;;5092836;28;20119;-61
2023/08/03 04:44:07;;;;;;;9.02;4.03;;;16.00;99.90;;;;;;5093210;28;20473;-61
2023/08/03 04:46:32;;;;;;;9.82;3.90;;;16.10;99.90;;;;;;5092304;28;20036;-61
2023/08/03 04:48:58;;;;;;;7.70;3.83;;;16.00;99.90;;;;;;5091187;28;20040;-61
2023/08/03 04:51:24;;;;;;;8.30;4.03;;;16.00;99.90;;;;;;5125150;27;20055;-61
2023/08/03 04:53:49;;;;;;;10.65;5.38;;;16.00;99.90;;;;;;5118961;27;20045;-61
2023/08/03 04:56:15;;;;;;;12.07;5.18;;;16.00;99.90;;;;;;5125415;27;20067;-61
2023/08/03 04:58:41;;;;;;;50.90;8.35;;;16.00;99.90;;;;;;5090481;28;20117;-61
2023/08/03 05:01:07;;;;;;;10.70;4.82;;;16.00;99.90;;;;;;5091077;28;20048;-61
2023/08/03 05:03:32;;;;;;;63.28;8.77;;;15.90;99.90;;;;;;5091032;28;20047;-61
2023/08/03 05:05:58;;;;;;;48.22;7.32;;;16.00;99.90;;;;;;5092156;28;20036;-61
2023/08/03 05:08:24;;;;;;;106.72;15.23;;;16.00;99.90;;;;;;5092615;28;20078;-61
2023/08/03 05:10:50;;;;;;;35.15;7.43;;;16.00;99.90;;;;;;5090561;28;20400;-61
2023/08/03 05:13:17;;;;;;;21.33;6.40;;;16.00;99.90;;;;;;5091759;28;20028;-61
2023/08/03 05:15:44;;;;;;;26.38;6.20;;;16.00;99.90;;;;;;5091862;28;20040;-61
2023/08/03 05:18:10;;;;;;;20.92;5.40;;;16.00;99.90;;;;;;5074134;28;20063;-61
2023/08/03 05:20:36;;;;;;;19.38;5.50;;;16.00;99.90;;;;;;5073755;28;20040;-61
2023/08/03 05:23:03;;;;;;;23.10;6.28;;;16.00;99.90;;;;;;5125129;27;20036;-61
2023/08/03 05:25:29;;;;;;;38.60;7.80;;;16.00;99.90;;;;;;5090650;28;20044;-61
2023/08/03 05:27:55;;;;;;;25.00;5.97;;;16.10;99.90;;;;;;5091362;28;20036;-61
2023/08/03 05:30:20;;;;;;;31.20;7.00;;;16.00;99.90;;;;;;5091163;28;20047;-61
2023/08/03 05:32:46;;;;;;;12.70;4.45;;;16.00;99.90;;;;;;5090091;28;20043;-61
2023/08/03 05:35:13;;;;;;;11.23;4.30;;;16.00;99.90;;;;;;5115025;27;20512;-62
2023/08/03 05:37:39;;;;;;;19.38;4.88;;;16.00;99.90;;;;;;5090806;28;20089;-61
2023/08/03 05:40:05;;;;;;;27.10;5.82;;;15.90;99.90;;;;;;5091710;28;20036;-61
2023/08/03 05:42:38;;;;;;;12.15;4.90;;;16.10;99.90;;;;;;5090030;28;20043;-61
2023/08/03 05:45:33;;;;;;;17.95;5.82;;;16.10;99.90;;;;;;5090443;28;20048;-61
2023/08/03 05:47:59;;;;;;;15.40;6.63;;;16.00;99.90;;;;;;5082581;28;20052;-63
2023/08/03 05:50:25;;;;;;;11.60;5.07;;;16.10;99.90;;;;;;5090435;28;20129;-63
2023/08/03 05:52:51;;;;;;;10.20;5.53;;;16.10;99.90;;;;;;5090174;28;20060;-63
2023/08/03 05:55:17;;;;;;;8.38;5.70;;;16.20;99.90;;;;;;5090235;28;20036;-63
2023/08/03 05:57:43;;;;;;;9.50;5.90;;;16.30;99.90;;;;;;5091604;28;20127;-63
2023/08/03 06:00:21;;;;;;;9.73;5.20;;;16.40;99.90;;;;;;5108056;28;20072;-63
2023/08/03 06:02:47;;;;;;;10.18;6.03;;;16.50;99.90;;;;;;5077857;28;20080;-63
2023/08/03 06:05:33;;;;;;;9.30;5.10;;;16.60;99.90;;;;;;5092368;28;20069;-63
2023/08/03 06:07:58;;;;;;;12.30;5.03;;;16.80;99.90;;;;;;5090519;28;20484;-63
2023/08/03 06:10:24;;;;;;;9.02;5.03;;;16.80;99.90;;;;;;5090256;28;20036;-62
2023/08/03 06:12:50;;;;;;;7.82;4.50;;;16.90;99.90;;;;;;5090707;28;20136;-62
2023/08/03 06:15:18;;;;;;;7.88;3.45;;;17.00;99.90;;;;;;5090318;28;20560;-63
2023/08/03 06:17:44;;;;;;;9.00;4.35;;;17.10;99.90;;;;;;5090579;28;20032;-63
2023/08/03 06:20:13;;;;;;;5.65;3.33;;;17.10;99.90;;;;;;5092110;28;20481;-63
2023/08/03 06:22:39;;;;;;;7.63;3.70;;;17.10;99.90;;;;;;5090558;28;20039;-65
2023/08/03 06:25:08;;;;;;;8.68;3.35;;;17.20;99.90;;;;;;5089488;28;20036;-65
2023/08/03 06:27:34;;;;;;;6.47;2.70;;;17.30;99.90;;;;;;5089619;28;20051;-65
2023/08/03 06:29:59;;;;;;;7.03;2.60;;;17.30;99.90;;;;;;5078055;28;20044;-65
2023/08/03 06:32:31;;;;;;;7.15;2.70;;;17.60;99.90;;;;;;5092014;28;20044;-64
2023/08/03 06:35:00;;;;;;;4.20;2.10;;;17.60;99.90;;;;;;5092825;28;20044;-63
2023/08/03 06:37:27;;;;;;;4.40;1.95;;;17.60;99.90;;;;;;5115065;28;20036;-63
2023/08/03 06:39:53;;;;;;;5.38;2.05;;;17.70;99.90;;;;;;5084767;28;20051;-63
2023/08/03 06:42:19;;;;;;;6.07;2.30;;;17.70;99.90;;;;;;5091388;28;20040;-63
2023/08/03 06:44:45;;;;;;;5.60;1.90;;;17.80;99.90;;;;;;5090507;28;20054;-64
2023/08/03 06:47:11;;;;;;;5.05;1.50;;;17.90;99.90;;;;;;5081844;28;20509;-64
2023/08/03 06:49:38;;;;;;;6.18;1.70;;;17.90;99.90;;;;;;5087015;28;20032;-64
2023/08/03 06:52:04;;;;;;;4.28;1.40;;;17.90;99.90;;;;;;5088693;28;20052;-64
2023/08/03 06:54:30;;;;;;;8.80;2.08;;;17.90;99.90;;;;;;5091088;28;20127;-63
2023/08/03 06:56:56;;;;;;;6.28;1.77;;;18.00;99.90;;;;;;5092072;28;20070;-62
2023/08/03 06:59:22;;;;;;;8.40;2.10;;;18.00;99.90;;;;;;5090310;28;20048;-62
2023/08/03 07:01:50;;;;;;;4.90;2.05;;;18.00;99.90;;;;;;5091254;28;20420;-63
2023/08/03 07:04:16;;;;;;;8.32;1.80;;;18.00;99.90;;;;;;5091672;28;20051;-63
2023/08/03 07:06:46;;;;;;;8.18;4.07;;;17.90;99.90;;;;;;5089408;28;20481;-63
2023/08/03 07:09:12;;;;;;;6.63;2.38;;;17.90;99.90;;;;;;5090645;28;20346;-64
2023/08/03 07:11:38;;;;;;;5.55;2.63;;;18.00;99.90;;;;;;5092042;28;20118;-63
2023/08/03 07:14:04;;;;;;;4.60;1.70;;;17.90;99.90;;;;;;5086884;28;20043;-62
2023/08/03 07:16:30;;;;;;;5.60;2.08;;;17.90;99.90;;;;;;5090054;28;20036;-62
2023/08/03 07:18:56;;;;;;;3.85;1.50;;;18.00;99.90;;;;;;5089792;28;20496;-63
2023/08/03 07:21:22;;;;;;;5.75;1.42;;;18.10;99.90;;;;;;5090436;28;20122;-63
2023/08/03 07:23:48;;;;;;;4.95;1.77;;;18.20;99.90;;;;;;5090473;28;20139;-63
2023/08/03 07:26:15;;;;;;;6.03;1.40;;;18.40;99.90;;;;;;5091877;28;20068;-63
2023/08/03 07:28:41;;;;;;;5.10;1.73;;;18.50;99.90;;;;;;5090254;28;20040;-63
2023/08/03 07:31:16;;;;;;;4.60;1.33;;;18.60;99.90;;;;;;5091103;28;20366;-63
2023/08/03 07:33:42;;;;;;;4.60;1.33;;;18.70;99.90;;;;;;5090319;28;20036;-63
2023/08/03 07:36:15;;;;;;;4.65;1.40;;;18.80;99.90;;;;;;5090314;28;20468;-62
2023/08/03 07:38:40;;;;;;;6.40;1.85;;;19.00;99.90;;;;;;5080176;28;20487;-63
2023/08/03 07:41:06;;;;;;;4.50;1.67;;;19.00;99.90;;;;;;5091739;28;20044;-64
2023/08/03 07:43:32;;;;;;;5.75;2.13;;;19.00;99.90;;;;;;5106775;27;20567;-64
2023/08/03 07:45:57;;;;;;;7.20;2.00;;;18.80;99.90;;;;;;5089343;28;20055;-63
2023/08/03 07:48:23;;;;;;;6.45;1.70;;;18.70;99.90;;;;;;5123297;27;20044;-63
2023/08/03 07:50:49;;;;;;;6.20;2.03;;;18.60;99.90;;;;;;5120009;27;20055;-64
2023/08/03 07:53:14;;;;;;;9.52;1.80;;;18.60;99.90;;;;;;5091229;28;20105;-64
2023/08/03 07:55:40;;;;;;;6.13;1.88;;;18.70;99.90;;;;;;5089290;28;20043;-64
2023/08/03 07:58:06;;;;;;;6.38;2.03;;;18.70;99.90;;;;;;5124102;27;20040;-65
2023/08/03 08:00:31;;;;;;;8.93;2.33;;;18.90;99.90;;;;;;5112109;27;20106;-65
2023/08/03 08:02:57;;;;;;;11.10;2.35;;;19.00;99.90;;;;;;5068608;28;20051;-64
2023/08/03 08:05:23;;;;;;;9.73;2.05;;;19.20;99.90;;;;;;5089253;28;20645;-65
2023/08/03 08:07:49;;;;;;;6.57;2.45;;;19.20;99.90;;;;;;5089726;28;20128;-64
2023/08/03 08:10:14;;;;;;;8.77;2.60;;;19.20;99.90;;;;;;5090057;28;20055;-64
2023/08/03 08:12:40;;;;;;;8.27;2.33;;;19.10;99.90;;;;;;5089235;28;20046;-65
2023/08/03 08:15:06;;;;;;;9.15;2.28;;;19.00;99.90;;;;;;5089433;28;20046;-65
2023/08/03 08:17:32;;;;;;;10.00;2.90;;;19.00;99.90;;;;;;5089147;28;20032;-65
2023/08/03 08:19:59;;;;;;;9.15;2.72;;;19.10;99.90;;;;;;5087627;28;20062;-64
2023/08/03 08:22:24;;;;;;;5.38;2.03;;;19.20;99.90;;;;;;5093135;28;20042;-63
2023/08/03 08:24:50;;;;;;;8.10;2.42;;;19.40;99.90;;;;;;5091777;28;20040;-64
2023/08/03 08:27:16;;;;;;;9.75;2.47;;;19.50;99.90;;;;;;5119671;27;20083;-63
2023/08/03 08:29:45;;;;;;;9.13;2.90;;;19.60;99.90;;;;;;5091947;28;20082;-64
2023/08/03 08:32:11;;;;;;;9.40;2.45;;;19.70;99.90;;;;;;5091045;28;20484;-65
2023/08/03 08:34:37;;;;;;;10.50;3.33;;;19.70;99.90;;;;;;5092980;28;20038;-64
2023/08/03 08:37:03;;;;;;;8.77;3.00;;;19.70;99.90;;;;;;5090418;28;20044;-63
2023/08/03 08:39:31;;;;;;;9.63;3.08;;;19.60;99.90;;;;;;5074691;28;20048;-64
2023/08/03 08:41:57;;;;;;;9.52;2.65;;;19.50;99.90;;;;;;5098184;28;20028;-64
2023/08/03 08:44:23;;;;;;;8.27;2.88;;;19.30;99.90;;;;;;5092175;28;20054;-64
2023/08/03 08:46:48;;;;;;;7.25;3.00;;;19.10;99.90;;;;;;5120561;27;20037;-63
2023/08/03 08:49:14;;;;;;;8.95;2.55;;;19.00;99.90;;;;;;5074567;28;20032;-64
2023/08/03 08:51:42;;;;;;;7.45;2.50;;;18.90;99.90;;;;;;5090061;28;20051;-64
2023/08/03 08:54:08;;;;;;;8.00;2.70;;;18.90;99.90;;;;;;5091539;28;20043;-64
2023/08/03 08:56:34;;;;;;;8.68;2.65;;;19.10;99.90;;;;;;5092505;28;20417;-64
2023/08/03 08:59:01;;;;;;;7.93;2.50;;;19.40;99.90;;;;;;5084434;28;20047;-64
2023/08/03 09:01:27;;;;;;;7.78;2.83;;;19.50;99.90;;;;;;5089344;28;20388;-64
2023/08/03 09:03:55;;;;;;;7.25;2.55;;;19.60;99.90;;;;;;5091513;28;20044;-63
2023/08/03 09:06:22;;;;;;;10.20;3.20;;;19.70;99.90;;;;;;5092027;28;20408;-64
2023/08/03 09:08:58;;;;;;;10.82;2.75;;;19.70;99.90;;;;;;5091506;28;20484;-64
2023/08/03 09:11:42;;;;;;;6.07;2.05;;;19.70;99.90;;;;;;5074424;28;20048;-64
2023/08/03 09:14:09;;;;;;;7.35;2.17;;;19.60;99.90;;;;;;5071862;28;20468;-64
2023/08/03 09:16:35;;;;;;;9.43;2.47;;;19.60;99.90;;;;;;5091260;28;20035;-63
2023/08/03 09:19:00;;;;;;;6.15;2.28;;;19.80;99.90;;;;;;5090763;28;20096;-64
2023/08/03 09:21:26;;;;;;;6.65;2.55;;;20.00;99.90;;;;;;5091993;28;20038;-64
2023/08/03 09:23:52;;;;;;;5.70;1.90;;;20.10;99.90;;;;;;5121889;27;20488;-64
2023/08/03 09:26:24;;;;;;;9.30;2.60;;;20.10;99.90;;;;;;5090118;28;20376;-63
2023/08/03 09:28:50;;;;;;;6.18;2.13;;;20.10;99.90;;;;;;5079586;28;20040;-66
2023/08/03 09:31:25;;;;;;;9.38;2.60;;;20.10;99.90;;;;;;5091403;28;20036;-67
2023/08/03 09:33:59;;;;;;;9.25;2.60;;;20.00;99.90;;;;;;5089504;28;20123;-67
2023/08/03 09:36:26;;;;;;;11.45;2.97;;;19.90;99.90;;;;;;5074087;28;20082;-67
2023/08/03 09:38:52;;;;;;;6.18;1.90;;;20.00;99.90;;;;;;5090225;28;20044;-67
2023/08/03 09:41:34;;;;;;;8.85;1.83;;;19.90;99.90;;;;;;5090676;28;20043;-68
2023/08/03 09:44:01;;;;;;;8.77;2.08;;;19.90;99.90;;;;;;5090786;28;20047;-68
2023/08/03 09:46:28;;;;;;;6.68;1.83;;;19.90;99.90;;;;;;5091131;28;20075;-64
2023/08/03 09:48:55;;;;;;;7.30;1.60;;;19.90;99.90;;;;;;5090912;28;20509;-64
2023/08/03 09:51:23;;;;;;;5.43;1.63;;;19.80;99.90;;;;;;5090358;28;20048;-64
2023/08/03 09:53:54;;;;;;;6.18;1.70;;;19.70;99.90;;;;;;5090324;28;20044;-64
2023/08/03 09:56:24;;;;;;;5.97;1.58;;;19.80;99.90;;;;;;5090875;28;20040;-64
2023/08/03 09:58:53;;;;;;;7.18;1.48;;;19.90;99.90;;;;;;5091220;28;20416;-64
2023/08/03 10:01:24;;;;;;;6.07;1.98;;;19.90;99.90;;;;;;5091106;28;20048;-64
2023/08/03 10:03:54;;;;;;;5.78;1.48;;;19.90;99.90;;;;;;5090452;28;20072;-64
2023/08/03 10:06:26;;;;;;;7.30;1.75;;;20.00;99.90;;;;;;5090588;28;20122;-64
2023/08/03 10:09:13;;;;;;;5.32;1.30;;;20.10;99.90;;;;;;5090007;28;20047;-64
2023/08/03 10:11:46;;;;;;;3.85;1.45;;;20.30;99.90;;;;;;5090566;28;20041;-63
2023/08/03 10:14:15;;;;;;;6.68;1.35;;;20.30;99.90;;;;;;5090985;28;20047;-65
2023/08/03 10:16:42;;;;;;;6.45;1.70;;;20.40;99.90;;;;;;5090857;28;20044;-65
2023/08/03 10:19:08;;;;;;;3.90;1.17;;;20.40;99.90;;;;;;5089581;28;20496;-64
2023/08/03 10:21:36;;;;;;;7.45;1.35;;;20.30;99.90;;;;;;5089817;28;20100;-65
2023/08/03 10:24:12;;;;;;;3.78;1.17;;;20.30;99.90;;;;;;5091007;28;20044;-65
2023/08/03 10:26:38;;;;;;;4.88;1.00;;;20.20;99.90;;;;;;5081442;28;20048;-64
2023/08/03 10:29:04;;;;;;;4.45;1.23;;;20.10;99.90;;;;;;5105780;28;20426;-64
2023/08/03 10:31:30;;;;;;;5.88;1.40;;;20.10;99.90;;;;;;5093128;28;20039;-64
2023/08/03 10:33:55;;;;;;;5.13;1.30;;;20.10;99.90;;;;;;5094191;28;20119;-64
2023/08/03 10:36:27;;;;;;;4.97;1.20;;;20.00;99.90;;;;;;5094510;28;20074;-64
2023/08/03 10:38:57;;;;;;;5.25;1.42;;;19.90;99.90;;;;;;5093955;28;20043;-64
2023/08/03 10:41:24;;;;;;;7.45;1.77;;;19.80;99.90;;;;;;5094440;28;20035;-64
2023/08/03 10:44:05;;;;;;;6.03;1.30;;;19.70;99.90;;;;;;5093575;28;20443;-64
2023/08/03 10:46:33;;;;;;;5.18;1.98;;;19.60;99.90;;;;;;5095448;28;20092;-64
2023/08/03 10:48:58;;;;;;;6.05;1.38;;;19.60;99.90;;;;;;5093663;28;20044;-64
2023/08/03 10:51:24;;;;;;;6.93;1.88;;;19.60;99.90;;;;;;5094678;28;20048;-64
2023/08/03 10:53:50;;;;;;;5.38;1.30;;;19.60;99.90;;;;;;5119914;27;20170;-64
2023/08/03 10:56:16;;;;;;;6.10;1.58;;;19.60;99.90;;;;;;5075103;28;20058;-64
2023/08/03 10:58:47;;;;;;;5.07;2.03;;;19.50;99.90;;;;;;5091896;28;20043;-64
2023/08/03 11:01:23;;;;;;;11.45;2.17;;;19.60;99.90;;;;;;5125490;27;20036;-65
2023/08/03 11:03:50;;;;;;;8.63;2.38;;;19.80;99.90;;;;;;5092393;28;20055;-65
2023/08/03 11:06:17;;;;;;;6.22;1.92;;;20.00;99.90;;;;;;5092749;28;20051;-65
2023/08/03 11:08:44;;;;;;;4.35;1.13;;;20.00;99.90;;;;;;5092564;28;20044;-65
2023/08/03 11:11:16;;;;;;;4.88;1.60;;;20.00;99.90;;;;;;5056400;28;20512;-65
2023/08/03 11:13:45;;;;;;;5.63;1.52;;;20.10;99.90;;;;;;5079654;28;20460;-63
2023/08/03 11:16:15;;;;;;;4.85;1.42;;;20.20;99.90;;;;;;5092452;28;20119;-64
2023/08/03 11:18:45;;;;;;;7.70;2.45;;;20.20;99.90;;;;;;5090355;28;20385;-63
2023/08/03 11:21:11;;;;;;;5.28;2.15;;;20.30;99.90;;;;;;5091461;28;20209;-64
2023/08/03 11:23:37;;;;;;;7.50;2.20;;;20.30;99.90;;;;;;5089279;28;20515;-64
2023/08/03 11:26:06;;;;;;;6.85;2.03;;;20.30;99.90;;;;;;5090500;28;20209;-63
2023/08/03 11:28:42;;;;;;;8.55;2.47;;;20.30;99.90;;;;;;5089843;28;20043;-64
2023/08/03 11:31:19;;;;;;;11.63;3.05;;;20.30;99.90;;;;;;5092130;28;20040;-64
2023/08/03 11:33:55;;;;;;;7.40;2.67;;;20.10;99.90;;;;;;5090730;28;20032;-64
2023/08/03 11:36:23;;;;;;;9.63;2.70;;;19.80;99.90;;;;;;5090134;28;20133;-64
2023/08/03 11:38:50;;;;;;;7.68;2.08;;;19.70;99.90;;;;;;5089960;28;20055;-64
2023/08/03 11:41:22;;;;;;;11.50;2.78;;;19.50;99.90;;;;;;5089954;28;20059;-64
2023/08/03 11:43:49;;;;;;;9.00;2.35;;;19.60;99.90;;;;;;5075582;28;20074;-64
2023/08/03 11:46:15;;;;;;;7.53;2.15;;;19.50;99.90;;;;;;5093799;28;20032;-63
2023/08/03 11:48:45;;;;;;;9.52;2.30;;;19.50;99.90;;;;;;5091364;28;20044;-65
2023/08/03 11:51:11;;;;;;;6.05;1.85;;;19.50;99.90;;;;;;5093564;28;20405;-63
2023/08/03 11:53:38;;;;;;;7.95;1.88;;;19.50;99.90;;;;;;5093516;28;20044;-62
2023/08/03 11:56:04;;;;;;;7.18;2.13;;;19.50;99.90;;;;;;5092519;28;20040;-63
2023/08/03 11:58:30;;;;;;;10.80;3.00;;;19.50;99.90;;;;;;5092705;28;20036;-64
2023/08/03 12:01:02;;;;;;;5.72;1.52;;;19.50;99.90;;;;;;5091883;28;20040;-63
2023/08/03 12:03:37;;;;;;;6.50;2.15;;;19.50;99.90;;;;;;5093495;28;20206;-63
2023/08/03 12:06:10;;;;;;;6.07;1.65;;;19.50;99.90;;;;;;5093565;28;20032;-63
2023/08/03 12:08:46;;;;;;;8.48;2.15;;;19.50;99.90;;;;;;5091828;28;20043;-63
2023/08/03 12:11:16;;;;;;;5.97;1.50;;;19.50;99.90;;;;;;5092640;28;20546;-63
2023/08/03 12:13:43;;;;;;;6.57;2.50;;;19.30;99.90;;;;;;5093528;28;20036;-63
2023/08/03 12:16:09;;;;;;;8.23;2.72;;;19.20;99.90;;;;;;5093191;28;20036;-63
2023/08/03 12:18:34;;;;;;;6.45;2.30;;;19.10;99.90;;;;;;5093267;28;20044;-63
2023/08/03 12:21:00;;;;;;;9.13;2.95;;;18.90;99.90;;;;;;5092267;28;20044;-63
2023/08/03 12:23:26;;;;;;;8.65;3.25;;;18.70;99.90;;;;;;5093067;28;20552;-62
2023/08/03 12:25:54;;;;;;;10.32;3.35;;;18.60;99.90;;;;;;5091767;28;20040;-62
2023/08/03 12:28:21;;;;;;;16.77;4.03;;;18.40;99.90;;;;;;5092429;28;20047;-62
2023/08/03 12:30:47;;;;;;;9.70;3.63;;;18.30;99.90;;;;;;5091053;28;20105;-62
2023/08/03 12:33:13;;;;;;;11.95;3.55;;;18.30;99.90;;;;;;5092002;28;20039;-62
2023/08/03 12:35:39;;;;;;;14.05;4.35;;;18.20;99.90;;;;;;5092908;28;20036;-62
2023/08/03 12:38:04;;;;;;;9.90;3.70;;;18.30;99.90;;;;;;5092685;28;20062;-62
2023/08/03 12:40:30;;;;;;;11.88;3.67;;;18.30;99.90;;;;;;5092970;28;20039;-62
2023/08/03 12:42:56;;;;;;;15.90;4.50;;;18.30;99.90;;;;;;5091845;28;20075;-63
2023/08/03 12:45:23;;;;;;;10.40;4.00;;;18.30;99.90;;;;;;5091519;28;20050;-62